sensor_id;sensor_type;location;lat;lon;timestamp;temperature;humidity
10155;DHT22;5118;48.570;7.916;2023-08-12T00:00:34;21.00;99.90
10155;DHT22;5118;48.570;7.916;2023-08-12T00:03:06;21.00;99.90
10155;DHT22;5118;48.570;7.916;2023-08-12T00:05:36;21.00;99.90
10155;DHT22;5118;48.570;7.916;2023-08-12T00:08:08;21.00;99.90
10155;DHT22;5118;48.570;7.916;2023-08-12T00:10:37;21.00;99.90
10155;DHT22;5118;48.570;7.916;2023-08-12T00:13:07;21.00;99.90
10155;DHT22;5118;48.570;7.916;2023-08-12T00:15:35;21.00;99.90
10155;DHT22;5118;48.570;7.916;2023-08-12T00:18:04;21.00;99.90
10155;DHT22;5118;48.570;7.916;2023-08-12T00:20:33;21.00;99.90
10155;DHT22;5118;48.570;7.916;2023-08-12T00:23:02;21.00;99.90
10155;DHT22;5118;48.570;7.916;2023-08-12T00:25:31;21.00;99.90
10155;DHT22;5118;48.570;7.916;2023-08-12T00:28:00;21.00;99.90
10155;DHT22;5118;48.570;7.916;2023-08-12T00:30:31;21.00;99.90
10155;DHT22;5118;48.570;7.916;2023-08-12T00:33:00;21.00;99.90
10155;DHT22;5118;48.570;7.916;2023-08-12T00:35:29;21.10;99.90
10155;DHT22;5118;48.570;7.916;2023-08-12T00:37:58;21.10;99.90
10155;DHT22;5118;48.570;7.916;2023-08-12T00:40:26;21.10;99.90
10155;DHT22;5118;48.570;7.916;2023-08-12T00:42:55;21.10;99.90
10155;DHT22;5118;48.570;7.916;2023-08-12T00:45:24;21.20;99.90
10155;DHT22;5118;48.570;7.916;2023-08-12T00:47:54;21.20;99.90
10155;DHT22;5118;48.570;7.916;2023-08-12T00:50:24;21.20;99.90
10155;DHT22;5118;48.570;7.916;2023-08-12T00:52:52;21.30;99.90
10155;DHT22;5118;48.570;7.916;2023-08-12T00:55:21;21.30;99.90
10155;DHT22;5118;48.570;7.916;2023-08-12T00:57:50;21.30;99.90
10155;DHT22;5118;48.570;7.916;2023-08-12T01:00:19;21.30;99.90
10155;DHT22;5118;48.570;7.916;2023-08-12T01:02:49;21.40;99.90
10155;DHT22;5118;48.570;7.916;2023-08-12T01:05:20;21.40;99.90
10155;DHT22;5118;48.570;7.916;2023-08-12T01:07:48;21.50;99.90
10155;DHT22;5118;48.570;7.916;2023-08-12T01:10:17;21.50;99.90
10155;DHT22;5118;48.570;7.916;2023-08-12T01:12:51;21.50;99.90
10155;DHT22;5118;48.570;7.916;2023-08-12T01:15:24;21.60;99.90
10155;DHT22;5118;48.570;7.916;2023-08-12T01:17:54;21.60;99.90
10155;DHT22;5118;48.570;7.916;2023-08-12T01:20:25;21.50;99.90
10155;DHT22;5118;48.570;7.916;2023-08-12T01:22:56;21.60;99.90
10155;DHT22;5118;48.570;7.916;2023-08-12T01:25:26;21.50;99.90
10155;DHT22;5118;48.570;7.916;2023-08-12T01:27:55;21.50;99.90
10155;DHT22;5118;48.570;7.916;2023-08-12T01:30:24;21.60;99.90
10155;DHT22;5118;48.570;7.916;2023-08-12T01:32:55;21.50;99.90
10155;DHT22;5118;48.570;7.916;2023-08-12T01:35:32;21.60;99.90
10155;DHT22;5118;48.570;7.916;2023-08-12T01:38:04;21.50;99.90
10155;DHT22;5118;48.570;7.916;2023-08-12T01:40:35;21.50;99.90
10155;DHT22;5118;48.570;7.916;2023-08-12T01:43:04;21.50;99.90
10155;DHT22;5118;48.570;7.916;2023-08-12T01:45:35;21.50;99.90
10155;DHT22;5118;48.570;7.916;2023-08-12T01:48:05;21.50;99.90
10155;DHT22;5118;48.570;7.916;2023-08-12T01:50:38;21.50;99.90
10155;DHT22;5118;48.570;7.916;2023-08-12T01:53:07;21.50;99.90
10155;DHT22;5118;48.570;7.916;2023-08-12T01:55:42;21.40;99.90
10155;DHT22;5118;48.570;7.916;2023-08-12T01:58:11;21.40;99.90
10155;DHT22;5118;48.570;7.916;2023-08-12T02:00:40;21.40;99.90
10155;DHT22;5118;48.570;7.916;2023-08-12T02:03:09;21.30;99.90
10155;DHT22;5118;48.570;7.916;2023-08-12T02:05:37;21.30;99.90
10155;DHT22;5118;48.570;7.916;2023-08-12T02:08:06;21.30;99.90
10155;DHT22;5118;48.570;7.916;2023-08-12T02:10:35;21.30;99.90
10155;DHT22;5118;48.570;7.916;2023-08-12T02:13:05;21.20;99.90
10155;DHT22;5118;48.570;7.916;2023-08-12T02:15:34;21.20;99.90
10155;DHT22;5118;48.570;7.916;2023-08-12T02:18:03;21.10;99.90
10155;DHT22;5118;48.570;7.916;2023-08-12T02:20:34;21.10;99.90
10155;DHT22;5118;48.570;7.916;2023-08-12T02:23:02;21.00;99.90
10155;DHT22;5118;48.570;7.916;2023-08-12T02:25:31;21.00;99.90
10155;DHT22;5118;48.570;7.916;2023-08-12T02:28:00;20.90;99.90
10155;DHT22;5118;48.570;7.916;2023-08-12T02:30:30;20.90;99.90
10155;DHT22;5118;48.570;7.916;2023-08-12T02:32:59;20.80;99.90
10155;DHT22;5118;48.570;7.916;2023-08-12T02:35:28;20.80;99.90
10155;DHT22;5118;48.570;7.916;2023-08-12T02:37:57;20.70;99.90
10155;DHT22;5118;48.570;7.916;2023-08-12T02:40:26;20.70;99.90
10155;DHT22;5118;48.570;7.916;2023-08-12T02:42:54;20.70;99.90
10155;DHT22;5118;48.570;7.916;2023-08-12T02:45:23;20.70;99.90
10155;DHT22;5118;48.570;7.916;2023-08-12T02:47:52;20.70;99.90
10155;DHT22;5118;48.570;7.916;2023-08-12T02:50:21;20.60;99.90
10155;DHT22;5118;48.570;7.916;2023-08-12T02:52:49;20.70;99.90
10155;DHT22;5118;48.570;7.916;2023-08-12T02:55:18;20.60;99.90
10155;DHT22;5118;48.570;7.916;2023-08-12T02:57:46;20.60;99.90
10155;DHT22;5118;48.570;7.916;2023-08-12T03:00:15;20.70;99.90
10155;DHT22;5118;48.570;7.916;2023-08-12T03:02:44;20.70;99.90
10155;DHT22;5118;48.570;7.916;2023-08-12T03:05:14;20.70;99.90
10155;DHT22;5118;48.570;7.916;2023-08-12T03:07:43;20.70;99.90
10155;DHT22;5118;48.570;7.916;2023-08-12T03:10:12;20.70;99.90
10155;DHT22;5118;48.570;7.916;2023-08-12T03:12:40;20.70;99.90
10155;DHT22;5118;48.570;7.916;2023-08-12T03:15:10;20.70;99.90
10155;DHT22;5118;48.570;7.916;2023-08-12T03:17:40;20.70;99.90
10155;DHT22;5118;48.570;7.916;2023-08-12T03:20:09;20.70;99.90
10155;DHT22;5118;48.570;7.916;2023-08-12T03:22:40;20.70;99.90
10155;DHT22;5118;48.570;7.916;2023-08-12T03:25:09;20.70;99.90
10155;DHT22;5118;48.570;7.916;2023-08-12T03:27:37;20.70;99.90
10155;DHT22;5118;48.570;7.916;2023-08-12T03:30:09;20.70;99.90
10155;DHT22;5118;48.570;7.916;2023-08-12T03:32:38;20.70;99.90
10155;DHT22;5118;48.570;7.916;2023-08-12T03:35:07;20.60;99.90
10155;DHT22;5118;48.570;7.916;2023-08-12T03:37:36;20.60;99.90
10155;DHT22;5118;48.570;7.916;2023-08-12T03:40:07;20.60;99.90
10155;DHT22;5118;48.570;7.916;2023-08-12T03:42:37;20.60;99.90
10155;DHT22;5118;48.570;7.916;2023-08-12T03:45:07;20.60;99.90
10155;DHT22;5118;48.570;7.916;2023-08-12T03:47:35;20.60;99.90
10155;DHT22;5118;48.570;7.916;2023-08-12T03:50:05;20.70;99.90
10155;DHT22;5118;48.570;7.916;2023-08-12T03:52:33;20.60;99.90
10155;DHT22;5118;48.570;7.916;2023-08-12T03:55:02;20.70;99.90
10155;DHT22;5118;48.570;7.916;2023-08-12T03:57:33;20.70;99.90
10155;DHT22;5118;48.570;7.916;2023-08-12T04:00:02;20.70;99.90
10155;DHT22;5118;48.570;7.916;2023-08-12T04:02:40;20.70;99.90
10155;DHT22;5118;48.570;7.916;2023-08-12T04:05:09;20.70;99.90
10155;DHT22;5118;48.570;7.916;2023-08-12T04:07:38;20.70;99.90
10155;DHT22;5118;48.570;7.916;2023-08-12T04:10:07;20.70;99.90
10155;DHT22;5118;48.570;7.916;2023-08-12T04:12:37;20.60;99.90
10155;DHT22;5118;48.570;7.916;2023-08-12T04:15:07;20.60;99.90
10155;DHT22;5118;48.570;7.916;2023-08-12T04:17:35;20.50;99.90
10155;DHT22;5118;48.570;7.916;2023-08-12T04:20:07;20.40;99.90
10155;DHT22;5118;48.570;7.916;2023-08-12T04:22:36;20.30;99.90
10155;DHT22;5118;48.570;7.916;2023-08-12T04:25:05;20.30;99.90
10155;DHT22;5118;48.570;7.916;2023-08-12T04:27:36;20.20;99.90
10155;DHT22;5118;48.570;7.916;2023-08-12T04:30:06;20.10;99.90
10155;DHT22;5118;48.570;7.916;2023-08-12T04:32:34;20.10;99.90
10155;DHT22;5118;48.570;7.916;2023-08-12T04:35:04;20.10;99.90
10155;DHT22;5118;48.570;7.916;2023-08-12T04:37:36;20.10;99.90
10155;DHT22;5118;48.570;7.916;2023-08-12T04:40:06;20.10;99.90
10155;DHT22;5118;48.570;7.916;2023-08-12T04:42:37;20.10;99.90
10155;DHT22;5118;48.570;7.916;2023-08-12T04:45:08;20.20;99.90
10155;DHT22;5118;48.570;7.916;2023-08-12T04:47:37;20.20;99.90
10155;DHT22;5118;48.570;7.916;2023-08-12T04:50:06;20.20;99.90
10155;DHT22;5118;48.570;7.916;2023-08-12T04:52:34;20.20;99.90
10155;DHT22;5118;48.570;7.916;2023-08-12T04:55:04;20.20;99.90
10155;DHT22;5118;48.570;7.916;2023-08-12T04:57:32;20.20;99.90
10155;DHT22;5118;48.570;7.916;2023-08-12T05:00:03;20.20;99.90
10155;DHT22;5118;48.570;7.916;2023-08-12T05:02:32;20.20;99.90
10155;DHT22;5118;48.570;7.916;2023-08-12T05:05:02;20.20;99.90
10155;DHT22;5118;48.570;7.916;2023-08-12T05:07:32;20.20;99.90
10155;DHT22;5118;48.570;7.916;2023-08-12T05:10:01;20.20;99.90
10155;DHT22;5118;48.570;7.916;2023-08-12T05:12:31;20.30;99.90
10155;DHT22;5118;48.570;7.916;2023-08-12T05:15:02;20.30;99.90
10155;DHT22;5118;48.570;7.916;2023-08-12T05:17:31;20.40;99.90
10155;DHT22;5118;48.570;7.916;2023-08-12T05:20:00;20.40;99.90
10155;DHT22;5118;48.570;7.916;2023-08-12T05:22:29;20.50;99.90
10155;DHT22;5118;48.570;7.916;2023-08-12T05:24:57;20.50;99.90
10155;DHT22;5118;48.570;7.916;2023-08-12T05:27:25;20.60;99.90
10155;DHT22;5118;48.570;7.916;2023-08-12T05:29:54;20.60;99.90
10155;DHT22;5118;48.570;7.916;2023-08-12T05:32:24;20.60;99.90
10155;DHT22;5118;48.570;7.916;2023-08-12T05:34:52;20.60;99.90
10155;DHT22;5118;48.570;7.916;2023-08-12T05:37:21;20.60;99.90
10155;DHT22;5118;48.570;7.916;2023-08-12T05:39:49;20.60;99.90
10155;DHT22;5118;48.570;7.916;2023-08-12T05:42:17;20.70;99.90
10155;DHT22;5118;48.570;7.916;2023-08-12T05:44:46;20.70;99.90
10155;DHT22;5118;48.570;7.916;2023-08-12T05:47:14;20.80;99.90
10155;DHT22;5118;48.570;7.916;2023-08-12T05:49:44;20.90;99.90
10155;DHT22;5118;48.570;7.916;2023-08-12T05:52:12;21.00;99.90
10155;DHT22;5118;48.570;7.916;2023-08-12T05:54:41;21.10;99.90
10155;DHT22;5118;48.570;7.916;2023-08-12T05:57:10;21.20;99.90
10155;DHT22;5118;48.570;7.916;2023-08-12T05:59:38;21.30;99.90
10155;DHT22;5118;48.570;7.916;2023-08-12T06:02:06;21.40;99.90
10155;DHT22;5118;48.570;7.916;2023-08-12T06:04:37;21.50;99.90
10155;DHT22;5118;48.570;7.916;2023-08-12T06:07:06;21.60;99.90
10155;DHT22;5118;48.570;7.916;2023-08-12T06:09:35;21.80;99.90
10155;DHT22;5118;48.570;7.916;2023-08-12T06:12:04;21.90;99.90
10155;DHT22;5118;48.570;7.916;2023-08-12T06:14:32;21.90;99.90
10155;DHT22;5118;48.570;7.916;2023-08-12T06:17:00;22.00;99.90
10155;DHT22;5118;48.570;7.916;2023-08-12T06:19:29;22.00;99.90
10155;DHT22;5118;48.570;7.916;2023-08-12T06:21:57;22.00;99.90
10155;DHT22;5118;48.570;7.916;2023-08-12T06:24:27;22.00;99.90
10155;DHT22;5118;48.570;7.916;2023-08-12T06:26:55;22.10;99.90
10155;DHT22;5118;48.570;7.916;2023-08-12T06:29:24;22.10;99.90
10155;DHT22;5118;48.570;7.916;2023-08-12T06:31:52;22.20;99.90
10155;DHT22;5118;48.570;7.916;2023-08-12T06:34:21;22.30;99.90
10155;DHT22;5118;48.570;7.916;2023-08-12T06:36:49;22.40;99.90
10155;DHT22;5118;48.570;7.916;2023-08-12T06:39:17;22.40;99.90
10155;DHT22;5118;48.570;7.916;2023-08-12T06:41:47;22.50;99.90
10155;DHT22;5118;48.570;7.916;2023-08-12T06:44:16;22.60;99.90
10155;DHT22;5118;48.570;7.916;2023-08-12T06:46:45;22.70;99.90
10155;DHT22;5118;48.570;7.916;2023-08-12T06:49:13;22.80;99.90
10155;DHT22;5118;48.570;7.916;2023-08-12T06:51:41;22.90;99.90
10155;DHT22;5118;48.570;7.916;2023-08-12T06:54:09;23.00;99.90
10155;DHT22;5118;48.570;7.916;2023-08-12T06:56:38;23.10;99.90
10155;DHT22;5118;48.570;7.916;2023-08-12T06:59:07;23.20;99.90
10155;DHT22;5118;48.570;7.916;2023-08-12T07:01:36;23.40;99.90
10155;DHT22;5118;48.570;7.916;2023-08-12T07:04:04;23.50;99.90
10155;DHT22;5118;48.570;7.916;2023-08-12T07:06:33;23.70;99.90
10155;DHT22;5118;48.570;7.916;2023-08-12T07:09:02;23.90;99.90
10155;DHT22;5118;48.570;7.916;2023-08-12T07:11:30;24.10;99.90
10155;DHT22;5118;48.570;7.916;2023-08-12T07:13:58;24.40;99.90
10155;DHT22;5118;48.570;7.916;2023-08-12T07:16:28;24.60;99.90
10155;DHT22;5118;48.570;7.916;2023-08-12T07:18:56;24.80;99.90
10155;DHT22;5118;48.570;7.916;2023-08-12T07:21:25;25.00;99.90
10155;DHT22;5118;48.570;7.916;2023-08-12T07:23:53;25.10;99.90
10155;DHT22;5118;48.570;7.916;2023-08-12T07:26:30;25.30;99.90
10155;DHT22;5118;48.570;7.916;2023-08-12T07:28:59;25.40;99.90
10155;DHT22;5118;48.570;7.916;2023-08-12T07:31:30;25.50;99.90
10155;DHT22;5118;48.570;7.916;2023-08-12T07:34:01;25.70;99.90
10155;DHT22;5118;48.570;7.916;2023-08-12T07:36:33;25.90;99.90
10155;DHT22;5118;48.570;7.916;2023-08-12T07:39:01;26.00;99.90
10155;DHT22;5118;48.570;7.916;2023-08-12T07:41:30;26.10;99.90
10155;DHT22;5118;48.570;7.916;2023-08-12T07:43:58;26.10;99.90
10155;DHT22;5118;48.570;7.916;2023-08-12T07:46:28;26.10;99.90
10155;DHT22;5118;48.570;7.916;2023-08-12T07:48:58;26.00;99.90
10155;DHT22;5118;48.570;7.916;2023-08-12T07:51:27;26.00;99.90
10155;DHT22;5118;48.570;7.916;2023-08-12T07:53:55;26.00;99.90
10155;DHT22;5118;48.570;7.916;2023-08-12T07:56:24;26.00;99.90
10155;DHT22;5118;48.570;7.916;2023-08-12T07:58:52;26.00;99.90
10155;DHT22;5118;48.570;7.916;2023-08-12T08:01:20;25.90;99.90
10155;DHT22;5118;48.570;7.916;2023-08-12T08:03:49;25.90;99.90
10155;DHT22;5118;48.570;7.916;2023-08-12T08:06:18;25.90;99.90
10155;DHT22;5118;48.570;7.916;2023-08-12T08:08:47;25.90;99.90
10155;DHT22;5118;48.570;7.916;2023-08-12T08:11:16;25.80;99.90
10155;DHT22;5118;48.570;7.916;2023-08-12T08:13:44;25.90;99.90
10155;DHT22;5118;48.570;7.916;2023-08-12T08:16:13;26.00;99.90
10155;DHT22;5118;48.570;7.916;2023-08-12T08:18:41;26.10;99.90
10155;DHT22;5118;48.570;7.916;2023-08-12T08:21:10;26.20;99.90
10155;DHT22;5118;48.570;7.916;2023-08-12T08:23:40;26.40;99.90
10155;DHT22;5118;48.570;7.916;2023-08-12T08:26:09;26.60;99.90
10155;DHT22;5118;48.570;7.916;2023-08-12T08:28:37;26.70;99.90
10155;DHT22;5118;48.570;7.916;2023-08-12T08:31:06;26.80;99.90
10155;DHT22;5118;48.570;7.916;2023-08-12T08:33:34;26.80;99.90
10155;DHT22;5118;48.570;7.916;2023-08-12T08:36:03;26.90;99.90
10155;DHT22;5118;48.570;7.916;2023-08-12T08:38:31;26.90;99.90
10155;DHT22;5118;48.570;7.916;2023-08-12T08:41:02;26.90;99.90
10155;DHT22;5118;48.570;7.916;2023-08-12T08:43:35;26.80;99.90
10155;DHT22;5118;48.570;7.916;2023-08-12T08:46:06;26.70;99.90
10155;DHT22;5118;48.570;7.916;2023-08-12T08:48:35;26.50;99.90
10155;DHT22;5118;48.570;7.916;2023-08-12T08:51:05;26.50;99.90
10155;DHT22;5118;48.570;7.916;2023-08-12T08:53:37;26.60;99.90
10155;DHT22;5118;48.570;7.916;2023-08-12T08:56:08;26.70;99.90
10155;DHT22;5118;48.570;7.916;2023-08-12T08:58:42;26.80;99.90
10155;DHT22;5118;48.570;7.916;2023-08-12T09:01:10;26.70;99.90
10155;DHT22;5118;48.570;7.916;2023-08-12T09:03:40;26.70;99.90
10155;DHT22;5118;48.570;7.916;2023-08-12T09:06:11;26.70;99.90
10155;DHT22;5118;48.570;7.916;2023-08-12T09:08:41;26.70;99.90
10155;DHT22;5118;48.570;7.916;2023-08-12T09:11:13;26.70;99.90
10155;DHT22;5118;48.570;7.916;2023-08-12T09:13:42;26.70;99.90
10155;DHT22;5118;48.570;7.916;2023-08-12T09:16:11;26.80;99.90
10155;DHT22;5118;48.570;7.916;2023-08-12T09:18:43;26.80;99.90
10155;DHT22;5118;48.570;7.916;2023-08-12T09:21:12;26.90;99.90
10155;DHT22;5118;48.570;7.916;2023-08-12T09:23:41;27.10;99.90
10155;DHT22;5118;48.570;7.916;2023-08-12T09:26:19;27.20;99.90
10155;DHT22;5118;48.570;7.916;2023-08-12T09:28:49;27.30;99.90
10155;DHT22;5118;48.570;7.916;2023-08-12T09:31:22;27.50;99.90
10155;DHT22;5118;48.570;7.916;2023-08-12T09:33:53;27.60;99.90
10155;DHT22;5118;48.570;7.916;2023-08-12T09:36:22;27.60;99.90
10155;DHT22;5118;48.570;7.916;2023-08-12T09:38:56;27.70;99.90
10155;DHT22;5118;48.570;7.916;2023-08-12T09:41:34;27.80;99.90
10155;DHT22;5118;48.570;7.916;2023-08-12T09:44:03;27.90;99.90
10155;DHT22;5118;48.570;7.916;2023-08-12T09:46:33;28.00;99.90
10155;DHT22;5118;48.570;7.916;2023-08-12T09:49:02;28.00;99.90
10155;DHT22;5118;48.570;7.916;2023-08-12T09:51:35;28.10;99.90
10155;DHT22;5118;48.570;7.916;2023-08-12T09:54:04;28.20;99.90
10155;DHT22;5118;48.570;7.916;2023-08-12T09:56:36;28.20;99.90
10155;DHT22;5118;48.570;7.916;2023-08-12T09:59:08;28.30;99.90
10155;DHT22;5118;48.570;7.916;2023-08-12T10:01:37;28.50;99.90
10155;DHT22;5118;48.570;7.916;2023-08-12T10:04:11;28.70;99.90
10155;DHT22;5118;48.570;7.916;2023-08-12T10:06:41;28.80;99.90
10155;DHT22;5118;48.570;7.916;2023-08-12T10:09:10;28.90;99.90
10155;DHT22;5118;48.570;7.916;2023-08-12T10:11:42;29.00;99.90
10155;DHT22;5118;48.570;7.916;2023-08-12T10:14:12;29.00;99.90
10155;DHT22;5118;48.570;7.916;2023-08-12T10:16:45;29.00;99.90
10155;DHT22;5118;48.570;7.916;2023-08-12T10:19:16;29.20;99.90
10155;DHT22;5118;48.570;7.916;2023-08-12T10:21:45;29.40;99.90
10155;DHT22;5118;48.570;7.916;2023-08-12T10:24:16;29.50;99.90
10155;DHT22;5118;48.570;7.916;2023-08-12T10:26:50;29.50;99.90
10155;DHT22;5118;48.570;7.916;2023-08-12T10:29:20;29.20;99.90
10155;DHT22;5118;48.570;7.916;2023-08-12T10:31:49;29.10;99.90
10155;DHT22;5118;48.570;7.916;2023-08-12T10:34:22;29.00;99.90
10155;DHT22;5118;48.570;7.916;2023-08-12T10:37:10;29.10;99.90
10155;DHT22;5118;48.570;7.916;2023-08-12T10:39:40;29.30;99.90
10155;DHT22;5118;48.570;7.916;2023-08-12T10:42:11;29.40;99.90
10155;DHT22;5118;48.570;7.916;2023-08-12T10:44:50;29.60;99.90
10155;DHT22;5118;48.570;7.916;2023-08-12T10:47:22;29.80;99.90
10155;DHT22;5118;48.570;7.916;2023-08-12T10:49:53;30.10;99.90
10155;DHT22;5118;48.570;7.916;2023-08-12T10:52:29;30.30;99.90
10155;DHT22;5118;48.570;7.916;2023-08-12T10:55:17;30.40;99.90
10155;DHT22;5118;48.570;7.916;2023-08-12T10:57:48;30.50;99.90
10155;DHT22;5118;48.570;7.916;2023-08-12T11:00:22;30.40;99.90
10155;DHT22;5118;48.570;7.916;2023-08-12T11:02:52;30.20;99.90
10155;DHT22;5118;48.570;7.916;2023-08-12T11:05:22;29.80;99.90
10155;DHT22;5118;48.570;7.916;2023-08-12T11:07:56;29.50;99.90
10155;DHT22;5118;48.570;7.916;2023-08-12T11:10:30;29.10;99.90
10155;DHT22;5118;48.570;7.916;2023-08-12T11:13:02;28.70;99.90
10155;DHT22;5118;48.570;7.916;2023-08-12T11:15:33;28.00;99.90
10155;DHT22;5118;48.570;7.916;2023-08-12T11:18:05;27.60;99.90
10155;DHT22;5118;48.570;7.916;2023-08-12T11:20:35;27.10;99.90
10155;DHT22;5118;48.570;7.916;2023-08-12T11:23:04;26.80;99.90
10155;DHT22;5118;48.570;7.916;2023-08-12T11:25:35;26.60;99.90
10155;DHT22;5118;48.570;7.916;2023-08-12T11:28:06;26.60;99.90
10155;DHT22;5118;48.570;7.916;2023-08-12T11:30:36;26.90;99.90
10155;DHT22;5118;48.570;7.916;2023-08-12T11:33:05;29.00;99.90
10155;DHT22;5118;48.570;7.916;2023-08-12T11:35:34;29.30;99.90
10155;DHT22;5118;48.570;7.916;2023-08-12T11:38:05;30.10;99.90
10155;DHT22;5118;48.570;7.916;2023-08-12T11:40:34;30.80;99.90
10155;DHT22;5118;48.570;7.916;2023-08-12T11:43:04;31.60;99.90
10155;DHT22;5118;48.570;7.916;2023-08-12T11:45:35;32.40;99.90
10155;DHT22;5118;48.570;7.916;2023-08-12T11:48:06;33.20;99.90
10155;DHT22;5118;48.570;7.916;2023-08-12T11:50:35;34.00;99.90
10155;DHT22;5118;48.570;7.916;2023-08-12T11:53:04;34.50;99.90
10155;DHT22;5118;48.570;7.916;2023-08-12T11:55:33;34.80;98.70
10155;DHT22;5118;48.570;7.916;2023-08-12T11:58:02;34.90;97.10
10155;DHT22;5118;48.570;7.916;2023-08-12T12:00:32;35.20;95.30
10155;DHT22;5118;48.570;7.916;2023-08-12T12:03:03;35.80;94.20
10155;DHT22;5118;48.570;7.916;2023-08-12T12:05:33;36.20;92.20
10155;DHT22;5118;48.570;7.916;2023-08-12T12:08:02;36.20;90.00
10155;DHT22;5118;48.570;7.916;2023-08-12T12:10:36;36.20;88.80
10155;DHT22;5118;48.570;7.916;2023-08-12T12:13:05;36.10;86.90
10155;DHT22;5118;48.570;7.916;2023-08-12T12:15:40;36.10;85.60
10155;DHT22;5118;48.570;7.916;2023-08-12T12:18:12;36.10;83.50
10155;DHT22;5118;48.570;7.916;2023-08-12T12:20:59;36.20;80.90
10155;DHT22;5118;48.570;7.916;2023-08-12T12:23:28;36.80;78.40
10155;DHT22;5118;48.570;7.916;2023-08-12T12:25:58;37.50;76.60
10155;DHT22;5118;48.570;7.916;2023-08-12T12:28:27;38.10;69.00
10155;DHT22;5118;48.570;7.916;2023-08-12T12:30:56;38.10;65.00
10155;DHT22;5118;48.570;7.916;2023-08-12T12:33:28;37.90;62.00
10155;DHT22;5118;48.570;7.916;2023-08-12T12:35:57;37.80;61.20
10155;DHT22;5118;48.570;7.916;2023-08-12T12:38:30;37.60;60.30
10155;DHT22;5118;48.570;7.916;2023-08-12T12:40:59;37.40;61.00
10155;DHT22;5118;48.570;7.916;2023-08-12T12:43:28;37.70;61.40
10155;DHT22;5118;48.570;7.916;2023-08-12T12:46:03;38.10;59.40
10155;DHT22;5118;48.570;7.916;2023-08-12T12:48:39;38.70;57.60
10155;DHT22;5118;48.570;7.916;2023-08-12T12:51:08;39.20;55.70
10155;DHT22;5118;48.570;7.916;2023-08-12T12:53:36;39.40;52.90
10155;DHT22;5118;48.570;7.916;2023-08-12T12:56:07;39.70;51.00
10155;DHT22;5118;48.570;7.916;2023-08-12T12:58:39;40.00;49.80
10155;DHT22;5118;48.570;7.916;2023-08-12T13:01:08;40.40;47.90
10155;DHT22;5118;48.570;7.916;2023-08-12T13:03:39;41.10;46.60
10155;DHT22;5118;48.570;7.916;2023-08-12T13:06:08;41.60;42.60
10155;DHT22;5118;48.570;7.916;2023-08-12T13:08:37;42.10;39.10
10155;DHT22;5118;48.570;7.916;2023-08-12T13:11:06;42.40;35.80
10155;DHT22;5118;48.570;7.916;2023-08-12T13:13:36;42.50;32.90
10155;DHT22;5118;48.570;7.916;2023-08-12T13:16:13;42.30;31.00
10155;DHT22;5118;48.570;7.916;2023-08-12T13:18:47;41.70;30.00
10155;DHT22;5118;48.570;7.916;2023-08-12T13:21:16;41.10;31.00
10155;DHT22;5118;48.570;7.916;2023-08-12T13:23:45;40.90;30.00
10155;DHT22;5118;48.570;7.916;2023-08-12T13:26:15;40.80;30.00
10155;DHT22;5118;48.570;7.916;2023-08-12T13:28:44;40.80;30.70
10155;DHT22;5118;48.570;7.916;2023-08-12T13:31:13;40.90;30.70
10155;DHT22;5118;48.570;7.916;2023-08-12T13:33:41;41.30;30.40
10155;DHT22;5118;48.570;7.916;2023-08-12T13:36:12;41.50;28.90
10155;DHT22;5118;48.570;7.916;2023-08-12T13:38:41;41.80;28.50
10155;DHT22;5118;48.570;7.916;2023-08-12T13:41:09;42.00;27.70
10155;DHT22;5118;48.570;7.916;2023-08-12T13:43:38;42.30;26.10
10155;DHT22;5118;48.570;7.916;2023-08-12T13:46:06;42.60;25.40
10155;DHT22;5118;48.570;7.916;2023-08-12T13:48:36;42.70;24.90
10155;DHT22;5118;48.570;7.916;2023-08-12T13:51:05;43.00;24.00
10155;DHT22;5118;48.570;7.916;2023-08-12T13:53:36;43.30;22.60
10155;DHT22;5118;48.570;7.916;2023-08-12T13:56:04;43.60;21.40
10155;DHT22;5118;48.570;7.916;2023-08-12T13:58:33;43.70;20.20
10155;DHT22;5118;48.570;7.916;2023-08-12T14:01:01;44.00;20.20
10155;DHT22;5118;48.570;7.916;2023-08-12T14:03:31;44.30;18.40
10155;DHT22;5118;48.570;7.916;2023-08-12T14:06:00;44.20;17.10
10155;DHT22;5118;48.570;7.916;2023-08-12T14:08:29;44.00;16.80
10155;DHT22;5118;48.570;7.916;2023-08-12T14:11:00;43.20;16.90
10155;DHT22;5118;48.570;7.916;2023-08-12T14:13:29;41.70;17.30
10155;DHT22;5118;48.570;7.916;2023-08-12T14:15:58;39.90;19.50
10155;DHT22;5118;48.570;7.916;2023-08-12T14:18:26;36.80;23.70
10155;DHT22;5118;48.570;7.916;2023-08-12T14:20:55;34.20;27.70
10155;DHT22;5118;48.570;7.916;2023-08-12T14:23:23;32.80;30.20
10155;DHT22;5118;48.570;7.916;2023-08-12T14:25:52;31.70;34.10
10155;DHT22;5118;48.570;7.916;2023-08-12T14:28:22;31.00;37.50
10155;DHT22;5118;48.570;7.916;2023-08-12T14:30:50;30.20;41.00
10155;DHT22;5118;48.570;7.916;2023-08-12T14:33:19;29.60;43.50
10155;DHT22;5118;48.570;7.916;2023-08-12T14:35:50;29.20;46.60
10155;DHT22;5118;48.570;7.916;2023-08-12T14:38:20;28.90;51.00
10155;DHT22;5118;48.570;7.916;2023-08-12T14:40:48;28.60;57.00
10155;DHT22;5118;48.570;7.916;2023-08-12T14:43:17;28.20;66.50
10155;DHT22;5118;48.570;7.916;2023-08-12T14:45:48;27.60;82.10
10155;DHT22;5118;48.570;7.916;2023-08-12T14:48:20;26.30;99.90
10155;DHT22;5118;48.570;7.916;2023-08-12T14:51:01;25.10;99.90
10155;DHT22;5118;48.570;7.916;2023-08-12T14:53:30;24.00;99.90
10155;DHT22;5118;48.570;7.916;2023-08-12T14:55:59;23.20;99.90
10155;DHT22;5118;48.570;7.916;2023-08-12T14:58:27;22.70;99.90
10155;DHT22;5118;48.570;7.916;2023-08-12T15:00:58;22.30;99.90
10155;DHT22;5118;48.570;7.916;2023-08-12T15:03:28;22.10;99.90
10155;DHT22;5118;48.570;7.916;2023-08-12T15:06:00;21.90;99.90
10155;DHT22;5118;48.570;7.916;2023-08-12T15:08:29;21.90;99.90
10155;DHT22;5118;48.570;7.916;2023-08-12T15:10:58;21.90;99.90
10155;DHT22;5118;48.570;7.916;2023-08-12T15:13:27;22.00;99.90
10155;DHT22;5118;48.570;7.916;2023-08-12T15:15:55;22.10;99.90
10155;DHT22;5118;48.570;7.916;2023-08-12T15:18:26;22.30;99.90
10155;DHT22;5118;48.570;7.916;2023-08-12T15:20:55;22.70;99.90
10155;DHT22;5118;48.570;7.916;2023-08-12T15:23:24;23.00;99.90
10155;DHT22;5118;48.570;7.916;2023-08-12T15:25:52;23.30;99.90
10155;DHT22;5118;48.570;7.916;2023-08-12T15:28:20;23.60;99.90
10155;DHT22;5118;48.570;7.916;2023-08-12T15:30:50;23.90;99.90
10155;DHT22;5118;48.570;7.916;2023-08-12T15:33:19;24.10;99.90
10155;DHT22;5118;48.570;7.916;2023-08-12T15:35:49;24.30;99.90
10155;DHT22;5118;48.570;7.916;2023-08-12T15:38:17;24.50;99.90
10155;DHT22;5118;48.570;7.916;2023-08-12T15:40:45;24.70;99.90
10155;DHT22;5118;48.570;7.916;2023-08-12T15:43:14;24.90;99.90
10155;DHT22;5118;48.570;7.916;2023-08-12T15:45:42;25.20;99.90
10155;DHT22;5118;48.570;7.916;2023-08-12T15:48:11;25.40;99.90
10155;DHT22;5118;48.570;7.916;2023-08-12T15:50:42;25.60;99.90
10155;DHT22;5118;48.570;7.916;2023-08-12T15:53:12;25.80;99.90
10155;DHT22;5118;48.570;7.916;2023-08-12T15:55:41;25.80;99.90
10155;DHT22;5118;48.570;7.916;2023-08-12T15:58:09;25.90;99.90
10155;DHT22;5118;48.570;7.916;2023-08-12T16:00:38;25.80;99.90